S C — FGF7634 — position and weather

sailwx.info

Track history (hours):
 
Tides and Currents Weather Stations Pressure Air Temp Water Temp Dewpoint Dewpoint Depression Visibility Wind Speed Wind Dir Waves Ship Positions

S C

Last reported at 2016-May-19 13:20 UTC. Time now 2016-May-24 13:53 UTC.
Position N 49°29' E 000°07'.

; draft 1 m.

Type: Pilot. MMSI: 227001820.

Date/timePositionNaut miles runAvg speedWind from/ knotsBaromVisibWave heightAir tempDewpointWater temp
2016-May-19 13:20N 49°29' E 000°07'  
2016-May-14 15:14N 49°29' E 000°07'0 0.0
2016-May-12 14:33N 49°29' E 000°07'0 0.0
2016-May-12 13:33N 49°29' E 000°07'4 4.0
2016-May-12 12:33N 49°30' E 000°01'5 5.2
2016-May-12 11:33N 49°32' W 000°07'9 9.2
2016-May-12 10:34N 49°29' E 000°07'7 6.8
2016-May-12 09:33N 49°31' W 000°03'7 6.8
2016-May-12 08:33N 49°29' E 000°07'0 0.0
2016-May-12 07:33N 49°29' E 000°07'0 0.1
2016-May-12 06:33N 49°29' E 000°07'0 0.1
2016-May-12 05:33N 49°29' E 000°07'9 8.6
2016-May-12 04:33N 49°31' W 000°06'9 8.6
2016-May-12 03:33N 49°29' E 000°07'0 0.2
2016-May-12 02:34N 49°29' E 000°06'0 0.2
2016-May-12 01:33N 49°29' E 000°06'0 0.5
2016-May-12 00:33N 49°29' E 000°07'0 0.1
2016-May-11 23:34N 49°29' E 000°07'0 0.1
2016-May-11 22:33N 49°29' E 000°07'0 0.0
2016-May-11 21:33N 49°29' E 000°07'0 0.0
2016-May-11 20:33N 49°29' E 000°07'3 2.7
2016-May-11 19:33N 49°30' E 000°03'2 2.4
2016-May-11 18:33N 49°29' E 000°06'3 2.5
2016-May-11 17:34N 49°30' E 000°03'3 2.7
2016-May-11 16:33N 49°29' E 000°07'0 0.0
2016-May-11 15:33N 49°29' E 000°07'0 0.0
2016-May-11 14:33N 49°29' E 000°07'0 0.0
2016-May-11 13:33N 49°29' E 000°07'0 0.0
2016-May-11 12:33N 49°29' E 000°07'0 0.0
2016-May-11 11:33N 49°29' E 000°07'0 0.0
2016-May-11 10:33N 49°29' E 000°07'0 0.0
2016-May-11 09:33N 49°29' E 000°07'0 0.0
2016-May-11 08:33N 49°29' E 000°07'0 0.0
2016-May-11 07:33N 49°29' E 000°07'0 0.0
2016-May-10 13:04N 49°29' E 000°07'0 0.0
2016-May-10 12:34N 49°29' E 000°07'0 0.2
2016-May-10 11:34N 49°29' E 000°07'0 0.2
2016-May-10 10:34N 49°29' E 000°07'0 0.1
2016-May-10 09:33N 49°29' E 000°07'0 0.1
2016-May-10 08:33N 49°29' E 000°07'0 0.0
2016-May-10 07:33N 49°29' E 000°07'0 0.0
2016-May-10 06:33N 49°29' E 000°07'1 0.6
2016-May-10 05:33N 49°29' E 000°06'3 2.7
2016-May-10 04:34N 49°30' E 000°02'2 1.8
2016-May-10 03:33N 49°29' E 000°05'1 1.4
2016-May-10 02:33N 49°29' E 000°07'8 7.6
2016-May-10 01:33N 49°31' W 000°04'8 7.5
2016-May-10 00:33N 49°29' E 000°07'0 0.0
2016-May-09 23:33N 49°29' E 000°07'2 1.5
2016-May-09 22:33N 49°29' E 000°05'2 1.5
2016-May-09 21:33N 49°29' E 000°07'0 0.0
2016-May-09 20:33N 49°29' E 000°07'6 5.8
2016-May-09 19:33N 49°31' W 000°02'6 5.8
2016-May-09 18:33N 49°29' E 000°07'0 0.0
2016-May-09 17:33N 49°29' E 000°07'0 0.0
2016-May-09 16:33N 49°29' E 000°07'0 0.5
2016-May-09 15:33N 49°29' E 000°06'0 0.3
2016-May-09 14:34N 49°29' E 000°07'0 0.2
2016-May-09 13:33N 49°29' E 000°07'  
Track history (hours):
 
Tides and Currents Weather Stations Pressure Air Temp Water Temp Dewpoint Dewpoint Depression Visibility Wind Speed Wind Dir Waves Ship Positions

S C

Last reported at 2016-May-19 13:20 UTC. Time now 2016-May-24 13:53 UTC.
Position N 49°29' E 000°07'.

; draft 1 m.

Type: Pilot. MMSI: 227001820.

Date/timePositionNaut miles runAvg speedWind from/ knotsBaromVisibWave heightAir tempDewpointWater temp
2016-May-19 13:20N 49°29' E 000°07'  
2016-May-14 15:14N 49°29' E 000°07'0 0.0
2016-May-12 14:33N 49°29' E 000°07'0 0.0
2016-May-12 13:33N 49°29' E 000°07'4 4.0
2016-May-12 12:33N 49°30' E 000°01'5 5.2
2016-May-12 11:33N 49°32' W 000°07'9 9.2
2016-May-12 10:34N 49°29' E 000°07'7 6.8
2016-May-12 09:33N 49°31' W 000°03'7 6.8
2016-May-12 08:33N 49°29' E 000°07'0 0.0
2016-May-12 07:33N 49°29' E 000°07'0 0.1
2016-May-12 06:33N 49°29' E 000°07'0 0.1
2016-May-12 05:33N 49°29' E 000°07'9 8.6
2016-May-12 04:33N 49°31' W 000°06'9 8.6
2016-May-12 03:33N 49°29' E 000°07'0 0.2
2016-May-12 02:34N 49°29' E 000°06'0 0.2
2016-May-12 01:33N 49°29' E 000°06'0 0.5
2016-May-12 00:33N 49°29' E 000°07'0 0.1
2016-May-11 23:34N 49°29' E 000°07'0 0.1
2016-May-11 22:33N 49°29' E 000°07'0 0.0
2016-May-11 21:33N 49°29' E 000°07'0 0.0
2016-May-11 20:33N 49°29' E 000°07'3 2.7
2016-May-11 19:33N 49°30' E 000°03'2 2.4
2016-May-11 18:33N 49°29' E 000°06'3 2.5
2016-May-11 17:34N 49°30' E 000°03'3 2.7
2016-May-11 16:33N 49°29' E 000°07'0 0.0
2016-May-11 15:33N 49°29' E 000°07'0 0.0
2016-May-11 14:33N 49°29' E 000°07'0 0.0
2016-May-11 13:33N 49°29' E 000°07'0 0.0
2016-May-11 12:33N 49°29' E 000°07'0 0.0
2016-May-11 11:33N 49°29' E 000°07'0 0.0
2016-May-11 10:33N 49°29' E 000°07'0 0.0
2016-May-11 09:33N 49°29' E 000°07'0 0.0
2016-May-11 08:33N 49°29' E 000°07'0 0.0
2016-May-11 07:33N 49°29' E 000°07'0 0.0
2016-May-10 13:04N 49°29' E 000°07'0 0.0
2016-May-10 12:34N 49°29' E 000°07'0 0.2
2016-May-10 11:34N 49°29' E 000°07'0 0.2
2016-May-10 10:34N 49°29' E 000°07'0 0.1
2016-May-10 09:33N 49°29' E 000°07'0 0.1
2016-May-10 08:33N 49°29' E 000°07'0 0.0
2016-May-10 07:33N 49°29' E 000°07'0 0.0
2016-May-10 06:33N 49°29' E 000°07'1 0.6
2016-May-10 05:33N 49°29' E 000°06'3 2.7
2016-May-10 04:34N 49°30' E 000°02'2 1.8
2016-May-10 03:33N 49°29' E 000°05'1 1.4
2016-May-10 02:33N 49°29' E 000°07'8 7.6
2016-May-10 01:33N 49°31' W 000°04'8 7.5
2016-May-10 00:33N 49°29' E 000°07'0 0.0
2016-May-09 23:33N 49°29' E 000°07'2 1.5
2016-May-09 22:33N 49°29' E 000°05'2 1.5
2016-May-09 21:33N 49°29' E 000°07'0 0.0
2016-May-09 20:33N 49°29' E 000°07'6 5.8
2016-May-09 19:33N 49°31' W 000°02'6 5.8
2016-May-09 18:33N 49°29' E 000°07'0 0.0
2016-May-09 17:33N 49°29' E 000°07'0 0.0
2016-May-09 16:33N 49°29' E 000°07'0 0.5
2016-May-09 15:33N 49°29' E 000°06'0 0.3
2016-May-09 14:34N 49°29' E 000°07'0 0.2
2016-May-09 13:33N 49°29' E 000°07'  

Dump ship's entire track history